Terminal Aerodrome Forecast
Issued by NWS

Home | Current Version | Previous Version | Text Only | Print | Product List | Glossary On
Versions: 1 2 3 4 5 6 7 8 9 10 11 12 13 14 15 16 17 18
642
FTUS46 KMFR 270246 AAB
TAFLMT
TAF AMD
KLMT 270246Z 2703/2724 28005KT P6SM FEW025 BKN100
      TEMPO 2704/2706 VRB04KT 5SM -SHSN SCT010 BKN020
     FM270900 VRB03KT P6SM VCSH BKN015 BKN025 BKN090
     FM272100 26011G18KT 6SM -SHSN BR SCT020 BKN035 BKN090=

USA.gov is the U.S. government's official web portal to all federal, state and local government web resources and services.